Perham, Maine
Current Conditions -  °F | °C
As of 5:54 AM on Wednesday 22 Oct 2014 (Local Time) from KCAR Reporting Station
Few Clouds Few Clouds  
Wind Chill: 27°   Ceiling: Unl
Heat Index: 35°   Visibility: 10mi
Dew Point: 29°   Wind: 12mph
Humidity: 78%   Direction: 20°NNE
Pressure: 30.32"   Gusts: NA
Location:  46.84°N, 68.2°W
Report Text: KCAR 220954Z AUTO 02010KT 10SM FEW080 02/M02 A3032 RMK AO2 SLP277 T00171017
Loading
Personal Weather Stations






























Interactive Weather Map
Tropical Storm Tracking
New forecast layout! Learn more

10-Day Weather Forecast

Advertisements
Track Severe Weather on mobile